sensor_id;sensor_type;location;lat;lon;timestamp;P1;durP1;ratioP1;P2;durP2;ratioP2
42724;SDS011;28369;44.046;23.014;2023-03-05T00:01:46;64.30;;;29.65;;
42724;SDS011;28369;44.046;23.014;2023-03-05T00:04:13;70.85;;;31.75;;
42724;SDS011;28369;44.046;23.014;2023-03-05T00:06:39;73.85;;;32.88;;
42724;SDS011;28369;44.046;23.014;2023-03-05T00:09:05;60.15;;;30.20;;
42724;SDS011;28369;44.046;23.014;2023-03-05T00:11:30;65.03;;;32.03;;
42724;SDS011;28369;44.046;23.014;2023-03-05T00:13:57;61.40;;;31.23;;
42724;SDS011;28369;44.046;23.014;2023-03-05T00:16:25;68.65;;;30.73;;
42724;SDS011;28369;44.046;23.014;2023-03-05T00:18:52;67.13;;;29.67;;
42724;SDS011;28369;44.046;23.014;2023-03-05T00:23:46;62.45;;;29.83;;
42724;SDS011;28369;44.046;23.014;2023-03-05T00:26:12;65.38;;;30.65;;
42724;SDS011;28369;44.046;23.014;2023-03-05T00:28:37;66.00;;;29.30;;
42724;SDS011;28369;44.046;23.014;2023-03-05T00:31:03;68.10;;;29.70;;
42724;SDS011;28369;44.046;23.014;2023-03-05T00:33:29;62.90;;;31.67;;
42724;SDS011;28369;44.046;23.014;2023-03-05T00:35:55;59.33;;;29.63;;
42724;SDS011;28369;44.046;23.014;2023-03-05T00:38:21;59.55;;;28.88;;
42724;SDS011;28369;44.046;23.014;2023-03-05T00:40:48;56.42;;;27.60;;
42724;SDS011;28369;44.046;23.014;2023-03-05T00:43:14;66.25;;;29.75;;
42724;SDS011;28369;44.046;23.014;2023-03-05T00:45:40;58.50;;;30.35;;
42724;SDS011;28369;44.046;23.014;2023-03-05T00:48:05;72.63;;;32.08;;
42724;SDS011;28369;44.046;23.014;2023-03-05T00:50:31;66.45;;;33.47;;
42724;SDS011;28369;44.046;23.014;2023-03-05T00:52:56;63.75;;;30.98;;
42724;SDS011;28369;44.046;23.014;2023-03-05T00:55:22;64.78;;;29.95;;
42724;SDS011;28369;44.046;23.014;2023-03-05T00:57:47;64.20;;;31.00;;
42724;SDS011;28369;44.046;23.014;2023-03-05T01:00:13;65.72;;;30.02;;
42724;SDS011;28369;44.046;23.014;2023-03-05T01:02:39;65.22;;;31.20;;
42724;SDS011;28369;44.046;23.014;2023-03-05T01:05:05;65.68;;;32.17;;
42724;SDS011;28369;44.046;23.014;2023-03-05T01:07:31;70.38;;;31.85;;
42724;SDS011;28369;44.046;23.014;2023-03-05T01:09:57;56.92;;;27.67;;
42724;SDS011;28369;44.046;23.014;2023-03-05T01:12:22;66.15;;;31.92;;
42724;SDS011;28369;44.046;23.014;2023-03-05T01:14:48;64.65;;;30.60;;
42724;SDS011;28369;44.046;23.014;2023-03-05T01:17:13;62.05;;;29.95;;
42724;SDS011;28369;44.046;23.014;2023-03-05T01:19:39;66.47;;;28.75;;
42724;SDS011;28369;44.046;23.014;2023-03-05T01:22:04;64.03;;;31.55;;
42724;SDS011;28369;44.046;23.014;2023-03-05T01:24:30;64.10;;;28.05;;
42724;SDS011;28369;44.046;23.014;2023-03-05T01:26:56;67.00;;;29.10;;
42724;SDS011;28369;44.046;23.014;2023-03-05T01:29:22;65.70;;;30.83;;
42724;SDS011;28369;44.046;23.014;2023-03-05T01:31:48;66.25;;;29.95;;
42724;SDS011;28369;44.046;23.014;2023-03-05T01:34:13;72.60;;;32.85;;
42724;SDS011;28369;44.046;23.014;2023-03-05T01:36:42;74.75;;;31.75;;
42724;SDS011;28369;44.046;23.014;2023-03-05T01:39:07;75.82;;;29.98;;
42724;SDS011;28369;44.046;23.014;2023-03-05T01:41:33;63.08;;;32.10;;
42724;SDS011;28369;44.046;23.014;2023-03-05T01:43:59;59.92;;;29.90;;
42724;SDS011;28369;44.046;23.014;2023-03-05T01:46:26;57.08;;;30.13;;
42724;SDS011;28369;44.046;23.014;2023-03-05T01:48:57;52.20;;;25.63;;
42724;SDS011;28369;44.046;23.014;2023-03-05T01:51:37;54.70;;;26.38;;
42724;SDS011;28369;44.046;23.014;2023-03-05T01:54:24;45.75;;;24.02;;
42724;SDS011;28369;44.046;23.014;2023-03-05T01:56:52;58.50;;;29.25;;
42724;SDS011;28369;44.046;23.014;2023-03-05T01:59:21;53.47;;;26.70;;
42724;SDS011;28369;44.046;23.014;2023-03-05T02:01:49;51.67;;;25.30;;
42724;SDS011;28369;44.046;23.014;2023-03-05T02:04:18;51.85;;;22.80;;
42724;SDS011;28369;44.046;23.014;2023-03-05T02:06:47;48.58;;;26.67;;
42724;SDS011;28369;44.046;23.014;2023-03-05T02:09:14;49.53;;;25.38;;
42724;SDS011;28369;44.046;23.014;2023-03-05T02:11:40;53.95;;;26.58;;
42724;SDS011;28369;44.046;23.014;2023-03-05T02:14:06;50.25;;;26.08;;
42724;SDS011;28369;44.046;23.014;2023-03-05T02:16:33;59.42;;;28.35;;
42724;SDS011;28369;44.046;23.014;2023-03-05T02:19:07;60.47;;;29.67;;
42724;SDS011;28369;44.046;23.014;2023-03-05T02:21:36;46.85;;;25.45;;
42724;SDS011;28369;44.046;23.014;2023-03-05T02:24:08;49.70;;;25.80;;
42724;SDS011;28369;44.046;23.014;2023-03-05T02:26:36;51.08;;;27.02;;
42724;SDS011;28369;44.046;23.014;2023-03-05T02:29:01;56.65;;;25.80;;
42724;SDS011;28369;44.046;23.014;2023-03-05T02:31:30;53.60;;;27.35;;
42724;SDS011;28369;44.046;23.014;2023-03-05T02:33:56;48.35;;;25.75;;
42724;SDS011;28369;44.046;23.014;2023-03-05T02:36:22;49.45;;;26.67;;
42724;SDS011;28369;44.046;23.014;2023-03-05T02:38:48;51.20;;;25.02;;
42724;SDS011;28369;44.046;23.014;2023-03-05T02:41:13;48.72;;;26.23;;
42724;SDS011;28369;44.046;23.014;2023-03-05T02:43:40;49.15;;;25.60;;
42724;SDS011;28369;44.046;23.014;2023-03-05T02:46:05;52.83;;;25.02;;
42724;SDS011;28369;44.046;23.014;2023-03-05T02:48:32;49.78;;;24.10;;
42724;SDS011;28369;44.046;23.014;2023-03-05T02:50:57;52.28;;;26.60;;
42724;SDS011;28369;44.046;23.014;2023-03-05T02:53:23;51.83;;;24.15;;
42724;SDS011;28369;44.046;23.014;2023-03-05T02:55:50;49.67;;;24.90;;
42724;SDS011;28369;44.046;23.014;2023-03-05T02:58:16;51.60;;;23.45;;
42724;SDS011;28369;44.046;23.014;2023-03-05T03:00:42;48.38;;;23.73;;
42724;SDS011;28369;44.046;23.014;2023-03-05T03:03:07;49.88;;;26.05;;
42724;SDS011;28369;44.046;23.014;2023-03-05T03:05:34;46.38;;;24.10;;
42724;SDS011;28369;44.046;23.014;2023-03-05T03:08:00;51.03;;;26.27;;
42724;SDS011;28369;44.046;23.014;2023-03-05T03:10:25;59.83;;;27.05;;
42724;SDS011;28369;44.046;23.014;2023-03-05T03:12:51;57.92;;;26.50;;
42724;SDS011;28369;44.046;23.014;2023-03-05T03:15:16;54.58;;;26.85;;
42724;SDS011;28369;44.046;23.014;2023-03-05T03:17:42;53.15;;;27.55;;
42724;SDS011;28369;44.046;23.014;2023-03-05T03:20:09;50.78;;;26.65;;
42724;SDS011;28369;44.046;23.014;2023-03-05T03:22:38;60.83;;;28.63;;
42724;SDS011;28369;44.046;23.014;2023-03-05T03:25:04;60.20;;;28.80;;
42724;SDS011;28369;44.046;23.014;2023-03-05T03:27:30;51.30;;;26.08;;
42724;SDS011;28369;44.046;23.014;2023-03-05T03:29:56;57.10;;;26.95;;
42724;SDS011;28369;44.046;23.014;2023-03-05T03:32:26;57.90;;;26.13;;
42724;SDS011;28369;44.046;23.014;2023-03-05T03:34:52;50.65;;;26.70;;
42724;SDS011;28369;44.046;23.014;2023-03-05T03:37:18;56.35;;;27.75;;
42724;SDS011;28369;44.046;23.014;2023-03-05T03:39:43;49.20;;;25.83;;
42724;SDS011;28369;44.046;23.014;2023-03-05T03:42:08;55.15;;;26.77;;
42724;SDS011;28369;44.046;23.014;2023-03-05T03:44:34;50.25;;;26.75;;
42724;SDS011;28369;44.046;23.014;2023-03-05T03:46:59;50.97;;;25.52;;
42724;SDS011;28369;44.046;23.014;2023-03-05T03:49:25;48.53;;;24.88;;
42724;SDS011;28369;44.046;23.014;2023-03-05T03:51:51;52.63;;;25.27;;
42724;SDS011;28369;44.046;23.014;2023-03-05T03:54:19;52.53;;;26.65;;
42724;SDS011;28369;44.046;23.014;2023-03-05T03:56:45;50.95;;;25.52;;
42724;SDS011;28369;44.046;23.014;2023-03-05T03:59:11;50.83;;;24.55;;
42724;SDS011;28369;44.046;23.014;2023-03-05T04:01:37;50.58;;;26.33;;
42724;SDS011;28369;44.046;23.014;2023-03-05T04:04:03;59.92;;;28.67;;
42724;SDS011;28369;44.046;23.014;2023-03-05T04:06:30;50.58;;;27.23;;
42724;SDS011;28369;44.046;23.014;2023-03-05T04:08:55;47.40;;;23.10;;
42724;SDS011;28369;44.046;23.014;2023-03-05T04:11:21;49.45;;;26.13;;
42724;SDS011;28369;44.046;23.014;2023-03-05T04:13:47;46.70;;;23.80;;
42724;SDS011;28369;44.046;23.014;2023-03-05T04:16:13;53.53;;;25.15;;
42724;SDS011;28369;44.046;23.014;2023-03-05T04:18:40;55.63;;;24.58;;
42724;SDS011;28369;44.046;23.014;2023-03-05T04:21:06;41.40;;;19.38;;
42724;SDS011;28369;44.046;23.014;2023-03-05T04:23:31;48.45;;;26.50;;
42724;SDS011;28369;44.046;23.014;2023-03-05T04:25:57;46.78;;;23.33;;
42724;SDS011;28369;44.046;23.014;2023-03-05T04:28:22;54.00;;;25.45;;
42724;SDS011;28369;44.046;23.014;2023-03-05T04:30:48;49.47;;;25.30;;
42724;SDS011;28369;44.046;23.014;2023-03-05T04:33:14;45.90;;;22.52;;
42724;SDS011;28369;44.046;23.014;2023-03-05T04:35:39;48.90;;;23.77;;
42724;SDS011;28369;44.046;23.014;2023-03-05T04:38:05;48.10;;;21.98;;
42724;SDS011;28369;44.046;23.014;2023-03-05T04:40:30;43.85;;;21.88;;
42724;SDS011;28369;44.046;23.014;2023-03-05T04:42:56;49.53;;;23.35;;
42724;SDS011;28369;44.046;23.014;2023-03-05T04:45:21;50.70;;;24.02;;
42724;SDS011;28369;44.046;23.014;2023-03-05T04:47:47;50.53;;;25.15;;
42724;SDS011;28369;44.046;23.014;2023-03-05T04:50:12;47.97;;;22.05;;
42724;SDS011;28369;44.046;23.014;2023-03-05T04:52:38;45.67;;;23.45;;
42724;SDS011;28369;44.046;23.014;2023-03-05T04:55:06;49.63;;;28.25;;
42724;SDS011;28369;44.046;23.014;2023-03-05T04:57:32;50.30;;;28.10;;
42724;SDS011;28369;44.046;23.014;2023-03-05T04:59:58;53.13;;;26.63;;
42724;SDS011;28369;44.046;23.014;2023-03-05T05:02:23;56.42;;;26.05;;
42724;SDS011;28369;44.046;23.014;2023-03-05T05:04:52;51.58;;;23.83;;
42724;SDS011;28369;44.046;23.014;2023-03-05T05:07:18;49.47;;;25.15;;
42724;SDS011;28369;44.046;23.014;2023-03-05T05:09:44;53.75;;;22.80;;
42724;SDS011;28369;44.046;23.014;2023-03-05T05:12:09;46.08;;;24.95;;
42724;SDS011;28369;44.046;23.014;2023-03-05T05:14:35;44.63;;;23.58;;
42724;SDS011;28369;44.046;23.014;2023-03-05T05:17:01;45.67;;;24.75;;
42724;SDS011;28369;44.046;23.014;2023-03-05T05:19:29;47.40;;;22.75;;
42724;SDS011;28369;44.046;23.014;2023-03-05T05:21:56;51.75;;;24.67;;
42724;SDS011;28369;44.046;23.014;2023-03-05T05:24:21;57.63;;;27.13;;
42724;SDS011;28369;44.046;23.014;2023-03-05T05:26:46;51.05;;;24.70;;
42724;SDS011;28369;44.046;23.014;2023-03-05T05:29:12;49.72;;;24.10;;
42724;SDS011;28369;44.046;23.014;2023-03-05T05:31:37;43.83;;;23.00;;
42724;SDS011;28369;44.046;23.014;2023-03-05T05:34:03;49.90;;;25.52;;
42724;SDS011;28369;44.046;23.014;2023-03-05T05:36:28;53.88;;;24.65;;
42724;SDS011;28369;44.046;23.014;2023-03-05T05:38:54;53.65;;;26.83;;
42724;SDS011;28369;44.046;23.014;2023-03-05T05:41:19;48.15;;;24.10;;
42724;SDS011;28369;44.046;23.014;2023-03-05T05:43:45;51.55;;;22.90;;
42724;SDS011;28369;44.046;23.014;2023-03-05T05:46:12;48.83;;;25.33;;
42724;SDS011;28369;44.046;23.014;2023-03-05T05:48:40;44.42;;;24.60;;
42724;SDS011;28369;44.046;23.014;2023-03-05T05:51:06;52.33;;;26.55;;
42724;SDS011;28369;44.046;23.014;2023-03-05T05:53:39;44.47;;;22.65;;
42724;SDS011;28369;44.046;23.014;2023-03-05T05:56:05;48.80;;;25.38;;
42724;SDS011;28369;44.046;23.014;2023-03-05T05:58:33;47.47;;;25.60;;
42724;SDS011;28369;44.046;23.014;2023-03-05T06:00:59;45.67;;;23.65;;
42724;SDS011;28369;44.046;23.014;2023-03-05T06:03:25;45.47;;;24.35;;
42724;SDS011;28369;44.046;23.014;2023-03-05T06:05:51;40.72;;;23.85;;
42724;SDS011;28369;44.046;23.014;2023-03-05T06:08:17;44.78;;;24.48;;
42724;SDS011;28369;44.046;23.014;2023-03-05T06:10:43;45.55;;;25.02;;
42724;SDS011;28369;44.046;23.014;2023-03-05T06:13:08;40.38;;;22.05;;
42724;SDS011;28369;44.046;23.014;2023-03-05T06:15:34;42.47;;;21.67;;
42724;SDS011;28369;44.046;23.014;2023-03-05T06:18:00;47.88;;;24.77;;
42724;SDS011;28369;44.046;23.014;2023-03-05T06:20:26;51.42;;;27.08;;
42724;SDS011;28369;44.046;23.014;2023-03-05T06:22:52;47.80;;;25.65;;
42724;SDS011;28369;44.046;23.014;2023-03-05T06:25:18;41.13;;;25.60;;
42724;SDS011;28369;44.046;23.014;2023-03-05T06:27:43;51.10;;;28.63;;
42724;SDS011;28369;44.046;23.014;2023-03-05T06:30:09;53.40;;;28.67;;
42724;SDS011;28369;44.046;23.014;2023-03-05T06:32:35;70.15;;;36.78;;
42724;SDS011;28369;44.046;23.014;2023-03-05T06:35:01;63.28;;;35.97;;
42724;SDS011;28369;44.046;23.014;2023-03-05T06:37:27;53.50;;;30.83;;
42724;SDS011;28369;44.046;23.014;2023-03-05T06:39:52;47.78;;;24.58;;
42724;SDS011;28369;44.046;23.014;2023-03-05T06:42:18;46.90;;;27.55;;
42724;SDS011;28369;44.046;23.014;2023-03-05T06:44:43;49.63;;;30.38;;
42724;SDS011;28369;44.046;23.014;2023-03-05T06:47:09;47.95;;;26.00;;
42724;SDS011;28369;44.046;23.014;2023-03-05T06:49:36;45.40;;;26.27;;
42724;SDS011;28369;44.046;23.014;2023-03-05T06:52:02;44.67;;;26.38;;
42724;SDS011;28369;44.046;23.014;2023-03-05T06:54:29;50.45;;;31.38;;
42724;SDS011;28369;44.046;23.014;2023-03-05T06:56:54;48.30;;;26.02;;
42724;SDS011;28369;44.046;23.014;2023-03-05T06:59:20;46.30;;;24.35;;
42724;SDS011;28369;44.046;23.014;2023-03-05T07:01:46;41.50;;;24.33;;
42724;SDS011;28369;44.046;23.014;2023-03-05T07:04:12;45.97;;;25.20;;
42724;SDS011;28369;44.046;23.014;2023-03-05T07:06:38;41.80;;;26.95;;
42724;SDS011;28369;44.046;23.014;2023-03-05T07:09:06;39.47;;;23.10;;
42724;SDS011;28369;44.046;23.014;2023-03-05T07:11:34;42.65;;;26.33;;
42724;SDS011;28369;44.046;23.014;2023-03-05T07:14:00;38.90;;;21.50;;
42724;SDS011;28369;44.046;23.014;2023-03-05T07:16:26;39.00;;;24.48;;
42724;SDS011;28369;44.046;23.014;2023-03-05T07:18:55;35.00;;;23.27;;
42724;SDS011;28369;44.046;23.014;2023-03-05T07:21:23;35.88;;;21.38;;
42724;SDS011;28369;44.046;23.014;2023-03-05T07:23:54;39.53;;;23.20;;
42724;SDS011;28369;44.046;23.014;2023-03-05T07:26:21;34.25;;;18.55;;
42724;SDS011;28369;44.046;23.014;2023-03-05T07:28:46;34.65;;;19.73;;
42724;SDS011;28369;44.046;23.014;2023-03-05T07:31:13;37.53;;;21.30;;
42724;SDS011;28369;44.046;23.014;2023-03-05T07:33:41;36.78;;;22.27;;
42724;SDS011;28369;44.046;23.014;2023-03-05T07:36:07;40.20;;;23.80;;
42724;SDS011;28369;44.046;23.014;2023-03-05T07:38:33;39.15;;;22.73;;
42724;SDS011;28369;44.046;23.014;2023-03-05T07:41:06;50.33;;;27.20;;
42724;SDS011;28369;44.046;23.014;2023-03-05T07:43:33;61.78;;;30.90;;
42724;SDS011;28369;44.046;23.014;2023-03-05T07:46:02;42.42;;;23.50;;
42724;SDS011;28369;44.046;23.014;2023-03-05T07:48:32;43.13;;;25.70;;
42724;SDS011;28369;44.046;23.014;2023-03-05T07:51:04;38.05;;;20.33;;
42724;SDS011;28369;44.046;23.014;2023-03-05T07:53:32;18.30;;;12.07;;
42724;SDS011;28369;44.046;23.014;2023-03-05T07:55:57;22.23;;;12.43;;
42724;SDS011;28369;44.046;23.014;2023-03-05T07:58:23;19.33;;;12.30;;
42724;SDS011;28369;44.046;23.014;2023-03-05T08:00:49;27.10;;;17.05;;
42724;SDS011;28369;44.046;23.014;2023-03-05T08:03:15;18.30;;;12.13;;
42724;SDS011;28369;44.046;23.014;2023-03-05T08:05:40;30.75;;;19.38;;
42724;SDS011;28369;44.046;23.014;2023-03-05T08:08:07;25.73;;;14.38;;
42724;SDS011;28369;44.046;23.014;2023-03-05T08:10:33;21.65;;;13.57;;
42724;SDS011;28369;44.046;23.014;2023-03-05T08:13:00;18.48;;;12.55;;
42724;SDS011;28369;44.046;23.014;2023-03-05T08:15:25;15.40;;;10.50;;
42724;SDS011;28369;44.046;23.014;2023-03-05T08:17:51;19.80;;;12.05;;
42724;SDS011;28369;44.046;23.014;2023-03-05T08:20:17;18.58;;;11.70;;
42724;SDS011;28369;44.046;23.014;2023-03-05T08:22:43;18.67;;;10.30;;
42724;SDS011;28369;44.046;23.014;2023-03-05T08:25:10;16.27;;;10.70;;
42724;SDS011;28369;44.046;23.014;2023-03-05T08:27:38;22.05;;;12.73;;
42724;SDS011;28369;44.046;23.014;2023-03-05T08:30:05;17.73;;;10.93;;
42724;SDS011;28369;44.046;23.014;2023-03-05T08:32:31;18.25;;;11.65;;
42724;SDS011;28369;44.046;23.014;2023-03-05T08:34:57;19.80;;;12.02;;
42724;SDS011;28369;44.046;23.014;2023-03-05T08:37:22;15.60;;;10.48;;
42724;SDS011;28369;44.046;23.014;2023-03-05T08:39:48;17.63;;;12.07;;
42724;SDS011;28369;44.046;23.014;2023-03-05T08:42:14;19.90;;;12.23;;
42724;SDS011;28369;44.046;23.014;2023-03-05T08:44:39;16.30;;;10.73;;
42724;SDS011;28369;44.046;23.014;2023-03-05T08:47:05;19.73;;;12.70;;
42724;SDS011;28369;44.046;23.014;2023-03-05T08:49:31;19.77;;;11.27;;
42724;SDS011;28369;44.046;23.014;2023-03-05T08:51:56;15.23;;;11.57;;
42724;SDS011;28369;44.046;23.014;2023-03-05T08:54:21;24.92;;;15.93;;
42724;SDS011;28369;44.046;23.014;2023-03-05T08:56:47;21.60;;;14.60;;
42724;SDS011;28369;44.046;23.014;2023-03-05T08:59:14;21.10;;;14.13;;
42724;SDS011;28369;44.046;23.014;2023-03-05T09:01:39;26.52;;;16.38;;
42724;SDS011;28369;44.046;23.014;2023-03-05T09:04:05;25.95;;;15.90;;
42724;SDS011;28369;44.046;23.014;2023-03-05T09:06:30;21.45;;;13.43;;
42724;SDS011;28369;44.046;23.014;2023-03-05T09:08:58;19.80;;;13.55;;
42724;SDS011;28369;44.046;23.014;2023-03-05T09:11:23;22.90;;;13.10;;
42724;SDS011;28369;44.046;23.014;2023-03-05T09:13:49;25.27;;;14.40;;
42724;SDS011;28369;44.046;23.014;2023-03-05T09:16:15;19.83;;;13.13;;
42724;SDS011;28369;44.046;23.014;2023-03-05T09:18:42;18.98;;;13.15;;
42724;SDS011;28369;44.046;23.014;2023-03-05T09:21:09;16.23;;;11.52;;
42724;SDS011;28369;44.046;23.014;2023-03-05T09:23:37;22.60;;;11.95;;
42724;SDS011;28369;44.046;23.014;2023-03-05T09:26:06;17.00;;;10.68;;
42724;SDS011;28369;44.046;23.014;2023-03-05T09:28:33;18.95;;;12.45;;
42724;SDS011;28369;44.046;23.014;2023-03-05T09:31:02;24.67;;;17.05;;
42724;SDS011;28369;44.046;23.014;2023-03-05T09:33:30;24.25;;;15.30;;
42724;SDS011;28369;44.046;23.014;2023-03-05T09:35:56;21.67;;;14.20;;
42724;SDS011;28369;44.046;23.014;2023-03-05T09:38:22;20.60;;;12.95;;
42724;SDS011;28369;44.046;23.014;2023-03-05T09:40:58;21.02;;;12.55;;
42724;SDS011;28369;44.046;23.014;2023-03-05T09:46:50;17.40;;;12.38;;
42724;SDS011;28369;44.046;23.014;2023-03-05T09:56:03;20.10;;;12.55;;
42724;SDS011;28369;44.046;23.014;2023-03-05T09:58:39;22.05;;;15.55;;
42724;SDS011;28369;44.046;23.014;2023-03-05T10:03:41;16.20;;;8.93;;
42724;SDS011;28369;44.046;23.014;2023-03-05T10:06:33;17.63;;;11.13;;
42724;SDS011;28369;44.046;23.014;2023-03-05T10:16:52;15.73;;;8.68;;
42724;SDS011;28369;44.046;23.014;2023-03-05T10:22:16;15.70;;;10.63;;
42724;SDS011;28369;44.046;23.014;2023-03-05T10:25:39;14.23;;;9.50;;
42724;SDS011;28369;44.046;23.014;2023-03-05T10:40:52;14.00;;;9.68;;
42724;SDS011;28369;44.046;23.014;2023-03-05T10:45:51;11.00;;;7.72;;
42724;SDS011;28369;44.046;23.014;2023-03-05T10:48:26;15.43;;;7.53;;
42724;SDS011;28369;44.046;23.014;2023-03-05T10:53:50;11.07;;;7.78;;
42724;SDS011;28369;44.046;23.014;2023-03-05T10:59:53;11.90;;;7.93;;
42724;SDS011;28369;44.046;23.014;2023-03-05T11:02:22;14.95;;;8.38;;
42724;SDS011;28369;44.046;23.014;2023-03-05T11:04:49;10.93;;;5.63;;
42724;SDS011;28369;44.046;23.014;2023-03-05T11:09:42;13.32;;;7.40;;
42724;SDS011;28369;44.046;23.014;2023-03-05T11:12:31;11.27;;;7.22;;
42724;SDS011;28369;44.046;23.014;2023-03-05T11:24:18;8.20;;;6.53;;
42724;SDS011;28369;44.046;23.014;2023-03-05T11:27:30;10.70;;;7.85;;
42724;SDS011;28369;44.046;23.014;2023-03-05T11:29:57;10.73;;;6.70;;
42724;SDS011;28369;44.046;23.014;2023-03-05T11:32:24;13.52;;;8.38;;
42724;SDS011;28369;44.046;23.014;2023-03-05T11:34:53;14.98;;;10.05;;
42724;SDS011;28369;44.046;23.014;2023-03-05T11:40:07;12.00;;;7.43;;
42724;SDS011;28369;44.046;23.014;2023-03-05T11:43:02;15.75;;;9.05;;
42724;SDS011;28369;44.046;23.014;2023-03-05T11:45:29;15.18;;;9.07;;
42724;SDS011;28369;44.046;23.014;2023-03-05T11:51:24;12.07;;;7.05;;
42724;SDS011;28369;44.046;23.014;2023-03-05T11:53:55;11.98;;;7.57;;
42724;SDS011;28369;44.046;23.014;2023-03-05T11:56:30;13.70;;;8.23;;
42724;SDS011;28369;44.046;23.014;2023-03-05T11:59:02;9.70;;;6.88;;
42724;SDS011;28369;44.046;23.014;2023-03-05T12:01:33;13.00;;;9.15;;
42724;SDS011;28369;44.046;23.014;2023-03-05T12:04:04;16.05;;;9.18;;
42724;SDS011;28369;44.046;23.014;2023-03-05T12:06:45;15.48;;;11.40;;
42724;SDS011;28369;44.046;23.014;2023-03-05T12:18:13;11.75;;;6.85;;
42724;SDS011;28369;44.046;23.014;2023-03-05T12:21:29;10.15;;;7.65;;
42724;SDS011;28369;44.046;23.014;2023-03-05T12:24:01;12.80;;;9.40;;
42724;SDS011;28369;44.046;23.014;2023-03-05T12:29:46;9.75;;;5.90;;
42724;SDS011;28369;44.046;23.014;2023-03-05T12:35:23;11.35;;;7.57;;
42724;SDS011;28369;44.046;23.014;2023-03-05T12:46:35;10.32;;;6.53;;
42724;SDS011;28369;44.046;23.014;2023-03-05T12:55:16;10.88;;;7.10;;
42724;SDS011;28369;44.046;23.014;2023-03-05T12:57:45;11.73;;;8.23;;
42724;SDS011;28369;44.046;23.014;2023-03-05T13:00:32;13.82;;;8.50;;
42724;SDS011;28369;44.046;23.014;2023-03-05T13:03:23;8.50;;;6.70;;
42724;SDS011;28369;44.046;23.014;2023-03-05T13:05:55;10.50;;;7.25;;
42724;SDS011;28369;44.046;23.014;2023-03-05T13:08:24;8.23;;;5.50;;
42724;SDS011;28369;44.046;23.014;2023-03-05T13:10:56;11.65;;;6.30;;
42724;SDS011;28369;44.046;23.014;2023-03-05T13:13:25;9.40;;;7.10;;
42724;SDS011;28369;44.046;23.014;2023-03-05T13:15:52;10.40;;;6.13;;
42724;SDS011;28369;44.046;23.014;2023-03-05T13:18:19;13.05;;;7.88;;
42724;SDS011;28369;44.046;23.014;2023-03-05T13:20:58;9.75;;;7.30;;
42724;SDS011;28369;44.046;23.014;2023-03-05T13:31:46;12.82;;;7.28;;
42724;SDS011;28369;44.046;23.014;2023-03-05T13:34:24;12.75;;;7.53;;
42724;SDS011;28369;44.046;23.014;2023-03-05T13:39:24;9.73;;;7.22;;
42724;SDS011;28369;44.046;23.014;2023-03-05T13:42:06;9.98;;;6.40;;
42724;SDS011;28369;44.046;23.014;2023-03-05T13:47:25;11.98;;;7.47;;
42724;SDS011;28369;44.046;23.014;2023-03-05T13:49:56;9.10;;;6.28;;
42724;SDS011;28369;44.046;23.014;2023-03-05T14:49:15;11.68;;;6.65;;
42724;SDS011;28369;44.046;23.014;2023-03-05T14:55:13;9.07;;;6.50;;
42724;SDS011;28369;44.046;23.014;2023-03-05T14:57:39;12.88;;;6.85;;
42724;SDS011;28369;44.046;23.014;2023-03-05T15:00:09;8.63;;;6.30;;
42724;SDS011;28369;44.046;23.014;2023-03-05T15:03:17;10.35;;;6.97;;
42724;SDS011;28369;44.046;23.014;2023-03-05T15:09:09;12.50;;;5.32;;
42724;SDS011;28369;44.046;23.014;2023-03-05T15:14:58;15.07;;;8.50;;
42724;SDS011;28369;44.046;23.014;2023-03-05T15:20:01;11.85;;;6.82;;
42724;SDS011;28369;44.046;23.014;2023-03-05T15:22:32;11.07;;;6.65;;
42724;SDS011;28369;44.046;23.014;2023-03-05T15:25:00;10.40;;;7.75;;
42724;SDS011;28369;44.046;23.014;2023-03-05T15:27:26;15.55;;;7.43;;
42724;SDS011;28369;44.046;23.014;2023-03-05T15:29:52;10.40;;;7.30;;
42724;SDS011;28369;44.046;23.014;2023-03-05T15:32:20;16.50;;;8.60;;
42724;SDS011;28369;44.046;23.014;2023-03-05T15:34:47;12.32;;;8.93;;
42724;SDS011;28369;44.046;23.014;2023-03-05T15:37:12;11.95;;;7.63;;
42724;SDS011;28369;44.046;23.014;2023-03-05T15:39:38;18.08;;;7.68;;
42724;SDS011;28369;44.046;23.014;2023-03-05T15:42:03;11.07;;;7.15;;
42724;SDS011;28369;44.046;23.014;2023-03-05T15:44:29;8.18;;;6.53;;
42724;SDS011;28369;44.046;23.014;2023-03-05T15:46:55;10.90;;;7.18;;
42724;SDS011;28369;44.046;23.014;2023-03-05T15:49:23;13.23;;;8.45;;
42724;SDS011;28369;44.046;23.014;2023-03-05T15:51:49;8.98;;;6.00;;
42724;SDS011;28369;44.046;23.014;2023-03-05T15:54:16;12.18;;;7.03;;
42724;SDS011;28369;44.046;23.014;2023-03-05T15:56:41;13.80;;;7.63;;
42724;SDS011;28369;44.046;23.014;2023-03-05T15:59:07;12.48;;;6.32;;
42724;SDS011;28369;44.046;23.014;2023-03-05T16:01:37;14.15;;;8.05;;
42724;SDS011;28369;44.046;23.014;2023-03-05T16:04:03;11.45;;;7.00;;
42724;SDS011;28369;44.046;23.014;2023-03-05T16:06:29;12.40;;;6.22;;
42724;SDS011;28369;44.046;23.014;2023-03-05T16:08:59;10.40;;;7.05;;
42724;SDS011;28369;44.046;23.014;2023-03-05T16:11:27;8.48;;;6.47;;
42724;SDS011;28369;44.046;23.014;2023-03-05T16:13:55;8.52;;;6.45;;
42724;SDS011;28369;44.046;23.014;2023-03-05T16:16:20;10.43;;;6.93;;
42724;SDS011;28369;44.046;23.014;2023-03-05T16:18:49;9.32;;;7.03;;
42724;SDS011;28369;44.046;23.014;2023-03-05T16:21:18;10.43;;;7.55;;
42724;SDS011;28369;44.046;23.014;2023-03-05T16:23:44;11.45;;;6.35;;
42724;SDS011;28369;44.046;23.014;2023-03-05T16:26:10;12.38;;;7.90;;
42724;SDS011;28369;44.046;23.014;2023-03-05T16:28:36;11.52;;;7.53;;
42724;SDS011;28369;44.046;23.014;2023-03-05T16:31:01;9.93;;;6.82;;
42724;SDS011;28369;44.046;23.014;2023-03-05T16:33:28;13.82;;;8.57;;
42724;SDS011;28369;44.046;23.014;2023-03-05T16:36:36;14.40;;;8.35;;
42724;SDS011;28369;44.046;23.014;2023-03-05T16:38:48;14.00;;;9.50;;
42724;SDS011;28369;44.046;23.014;2023-03-05T16:41:15;13.48;;;8.35;;
42724;SDS011;28369;44.046;23.014;2023-03-05T16:43:42;14.25;;;8.13;;
42724;SDS011;28369;44.046;23.014;2023-03-05T16:46:08;14.23;;;9.52;;
42724;SDS011;28369;44.046;23.014;2023-03-05T16:48:35;13.57;;;9.05;;
42724;SDS011;28369;44.046;23.014;2023-03-05T16:51:01;16.48;;;8.90;;
42724;SDS011;28369;44.046;23.014;2023-03-05T16:53:27;12.35;;;8.90;;
42724;SDS011;28369;44.046;23.014;2023-03-05T16:55:52;11.45;;;7.72;;
42724;SDS011;28369;44.046;23.014;2023-03-05T16:58:17;14.60;;;8.73;;
42724;SDS011;28369;44.046;23.014;2023-03-05T17:00:43;13.50;;;8.52;;
42724;SDS011;28369;44.046;23.014;2023-03-05T17:03:08;17.08;;;9.30;;
42724;SDS011;28369;44.046;23.014;2023-03-05T17:05:34;18.10;;;9.15;;
42724;SDS011;28369;44.046;23.014;2023-03-05T17:08:00;16.80;;;9.23;;
42724;SDS011;28369;44.046;23.014;2023-03-05T17:10:28;11.48;;;7.40;;
42724;SDS011;28369;44.046;23.014;2023-03-05T17:12:54;13.43;;;8.65;;
42724;SDS011;28369;44.046;23.014;2023-03-05T17:15:21;16.42;;;9.48;;
42724;SDS011;28369;44.046;23.014;2023-03-05T17:17:46;17.33;;;9.73;;